メインページ
METAR-TAF:

METAR-TAF

空港 :

デンバー, コロラド州, アメリカ合衆国

デンバー国際空港

緯度: 39-49-58N, 経度: 104-39-27W, 海抜: 1655m

現時点の気象観測

当レポートは17分前の10:53(UTC)に作成
南/南東の風 13kt
気温 6°C
湿度 61%
気圧 1015 hPa
視程: 16.1km
高度10000ftの雲はほとんどない
高度22000ftの雲はほとんどない

METAR: KDEN 201053Z 15013KT 10SM FEW100 FEW220 06/M01 A2996 RMK AO2 SLP076 T00611011

時間: 05:10 (11:10 UTC)

予報

当レポートは2時間10分前の09:00(UTC)に作成
予報は20日の 09時(UTC)から 21日の 12時(UTC)まで有効
南/南東の風 12kt
視程: 10km
高度10000ftの雲はほとんどない
20日の 1400時(UTC)から
南/南西の風 9kt
視程: 10km
高度22000ftの雲はほとんどない
20日の 1700時(UTC)から
の風 12kt
視程: 10km
高度22000ftの雲は散在している
20日の 2000時(UTC)から
南/南東の風 14kt、最大23ktの突風を伴う
視程: 10km
高度12000ftの雲はほとんどない
高度22000ftの雲は散在している
21日の 0100時(UTC)から
の風 10kt、最大15ktの突風を伴う
視程: 10km
高度14000ftの雲はほとんどない
高度22000ftの雲は散在している
21日の 0600時(UTC)から
南西の風 11kt
視程: 10km
高度22000ftの雲はほとんどない

TAF: KDEN 200900Z 2009/2112 15012KT P6SM FEW100 FM201400 20009KT P6SM FEW220 FM201700 17012KT P6SM SCT220 FM202000 16014G23KT P6SM FEW120 SCT220 FM210100 18010G15KT P6SM FEW140 SCT220 FM210600 22011KT P6SM FEW220

4,000以上の空港の気象観測と天気予報(METAR報とTAF報)

利用可能な観測所は地図上に黄色い丸と赤い丸で示す。

丸の上にカーソルを重ねると観測所名を参照できる。

次にクリックすると気象観測と天気予報を参照できる。

マップの切り替え:黒色「×」印の緑ボタンをクリックして拡大、「-」印の緑ボタンをクリックして縮小、緑色の三角印をクリックして隣りの地図に切り替え


METAR-TAF: